Time;durP1;ratioP1;P1;durP2;ratioP2;P2;SDS_P1;SDS_P2;PMS_P1;PMS_P2;Temp;Humidity;BMP_temperature;BMP_pressure;BME280_temperature;BME280_humidity;BME280_pressure;Samples;Min_cycle;Max_cycle;Signal;HPM_P1;HPM_P2
2021/08/18 00:01:03;;;;;;;9.73;4.40;;;;;;;17.45;75.10;101522.28;5053171;28;20182;-62
2021/08/18 00:03:31;;;;;;;12.20;4.45;;;;;;;17.36;75.38;101517.97;5052917;28;20057;-61
2021/08/18 00:05:59;;;;;;;11.25;4.10;;;;;;;17.66;74.81;101516.78;5052909;28;20049;-62
2021/08/18 00:08:26;;;;;;;8.50;4.20;;;;;;;17.44;75.00;101517.06;5053212;28;20049;-62
2021/08/18 00:10:53;;;;;;;11.40;4.18;;;;;;;17.21;75.78;101504.66;5053493;28;20079;-69
2021/08/18 00:13:23;;;;;;;14.38;4.07;;;;;;;17.15;76.13;101512.38;5043340;28;20056;-61
2021/08/18 00:15:51;;;;;;;12.07;4.22;;;;;;;17.20;75.82;101511.38;5033016;28;20052;-62
2021/08/18 00:18:18;;;;;;;11.73;3.97;;;;;;;17.15;76.59;101498.47;5014633;28;20065;-69
2021/08/18 00:20:45;;;;;;;13.02;4.45;;;;;;;17.19;76.29;101504.97;5033267;28;20076;-70
2021/08/18 00:23:13;;;;;;;13.82;3.95;;;;;;;17.41;75.83;101498.25;5032129;28;20064;-70
2021/08/18 00:25:40;;;;;;;10.20;4.00;;;;;;;17.52;75.28;101502.31;5032941;28;20334;-62
2021/08/18 00:28:07;;;;;;;9.95;3.80;;;;;;;17.55;74.74;101499.66;5033115;28;20056;-62
2021/08/18 00:30:35;;;;;;;9.88;3.78;;;;;;;17.65;74.45;101492.84;5033446;28;20587;-61
2021/08/18 00:33:03;;;;;;;11.93;3.92;;;;;;;17.64;74.37;101494.78;5031567;28;20069;-71
2021/08/18 00:35:30;;;;;;;8.65;4.03;;;;;;;17.58;74.26;101495.34;5031507;28;20397;-70
2021/08/18 00:37:57;;;;;;;13.07;4.28;;;;;;;17.44;75.00;101490.03;5032750;28;20373;-70
2021/08/18 00:40:25;;;;;;;13.82;4.38;;;;;;;17.46;75.17;101500.84;5031771;28;20065;-69
2021/08/18 00:42:52;;;;;;;11.90;3.65;;;;;;;17.46;75.26;101495.28;5033031;28;20382;-70
2021/08/18 00:45:21;;;;;;;11.93;4.05;;;;;;;17.53;74.96;101499.19;5032862;28;20049;-70
2021/08/18 00:47:50;;;;;;;8.60;3.42;;;;;;;17.64;74.39;101489.22;5032876;28;20054;-70
2021/08/18 00:50:24;;;;;;;9.05;4.20;;;;;;;17.42;75.04;101492.34;5033045;28;20053;-70
2021/08/18 00:52:52;;;;;;;13.35;4.32;;;;;;;17.47;75.09;101494.94;5032993;28;20055;-69
2021/08/18 00:55:22;;;;;;;10.70;3.77;;;;;;;17.60;74.78;101496.66;5032681;28;20060;-63
2021/08/18 00:57:51;;;;;;;10.43;3.50;;;;;;;17.48;75.15;101491.03;5033686;28;20049;-62
2021/08/18 01:00:19;;;;;;;10.57;4.25;;;;;;;17.65;74.58;101490.88;5036567;28;20072;-70
2021/08/18 01:02:47;;;;;;;15.68;4.05;;;;;;;17.39;75.35;101498.59;5034972;28;20061;-69
2021/08/18 01:05:21;;;;;;;11.70;3.67;;;;;;;17.44;75.44;101490.03;5036213;28;20050;-69
2021/08/18 01:07:50;;;;;;;13.02;4.25;;;;;;;17.43;74.98;101484.81;5036276;28;20045;-69
2021/08/18 01:10:20;;;;;;;11.25;4.53;;;;;;;17.50;74.98;101488.72;5036470;28;20054;-62
2021/08/18 01:12:48;;;;;;;12.50;3.83;;;;;;;17.29;75.46;101495.41;5023345;28;20064;-61
2021/08/18 01:15:17;;;;;;;13.73;3.90;;;;;;;17.34;75.30;101487.69;5056156;28;20061;-69
2021/08/18 01:17:47;;;;;;;12.25;4.07;;;;;;;17.53;74.67;101488.03;5037505;28;20057;-62
2021/08/18 01:20:16;;;;;;;;;;;;;;;17.60;74.45;101485.50;5056484;28;20072;-61
2021/08/18 01:22:43;;;;;;;10.40;3.85;;;;;;;17.86;72.75;101482.47;5038273;28;20380;-62
2021/08/18 01:25:11;;;;;;;11.45;3.97;;;;;;;17.28;74.37;101485.41;5037717;28;20057;-62
2021/08/18 01:27:46;;;;;;;15.43;3.92;;;;;;;17.17;75.44;101478.63;5038089;28;20057;-61
2021/08/18 01:30:14;;;;;;;9.40;3.95;;;;;;;17.13;75.39;101481.28;5055952;28;20052;-62
2021/08/18 01:33:03;;;;;;;12.10;3.80;;;;;;;17.12;75.58;101479.63;5037117;28;20416;-62
2021/08/18 01:35:36;;;;;;;13.07;3.42;;;;;;;17.14;75.39;101474.56;5054387;28;20516;-69
2021/08/18 01:38:05;;;;;;;9.52;3.70;;;;;;;17.20;75.14;101473.22;5055805;28;20045;-68
2021/08/18 01:40:33;;;;;;;11.80;4.00;;;;;;;17.55;73.81;101477.38;5055598;28;20053;-69
2021/08/18 01:43:00;;;;;;;15.18;4.30;;;;;;;17.77;72.56;101470.59;5053901;28;20056;-68
2021/08/18 01:45:29;;;;;;;14.48;3.83;;;;;;;17.63;72.82;101475.63;5055500;28;20076;-62
2021/08/18 01:47:57;;;;;;;12.45;3.78;;;;;;;17.69;73.09;101471.50;5053886;28;20049;-69
2021/08/18 01:50:25;;;;;;;13.23;4.15;;;;;;;17.61;72.99;101472.38;5053548;28;20056;-69
2021/08/18 01:52:55;;;;;;;10.27;3.60;;;;;;;17.67;73.14;101476.59;5055345;28;20049;-68
2021/08/18 01:55:26;;;;;;;16.83;3.70;;;;;;;17.63;72.90;101465.31;5053868;28;20072;-69
2021/08/18 01:57:54;;;;;;;11.35;3.72;;;;;;;17.74;72.29;101466.53;5055162;28;20048;-68
2021/08/18 02:00:22;;;;;;;15.40;3.65;;;;;;;17.56;72.79;101470.63;5055390;28;20055;-62
2021/08/18 02:02:49;;;;;;;11.45;3.72;;;;;;;17.45;73.72;101463.81;5037212;28;20484;-62
2021/08/18 02:05:17;;;;;;;14.75;4.25;;;;;;;17.53;72.89;101462.97;5054996;28;20503;-62
2021/08/18 02:07:45;;;;;;;7.85;3.30;;;;;;;17.65;72.71;101473.31;5053505;28;20061;-62
2021/08/18 02:10:15;;;;;;;12.73;3.13;;;;;;;17.60;72.73;101465.19;5053965;28;20576;-62
2021/08/18 02:12:42;;;;;;;;;;;;;;;17.28;74.07;101466.75;5051485;28;20250;-62
2021/08/18 02:15:12;;;;;;;11.23;3.42;;;;;;;17.48;73.98;101467.91;5033565;28;19925;-62
2021/08/18 02:17:39;;;;;;;13.15;3.58;;;;;;;17.49;73.12;101467.56;5033721;28;20064;-70
2021/08/18 02:20:10;;;;;;;11.30;3.78;;;;;;;17.28;74.02;101455.59;5034920;28;20046;-68
2021/08/18 02:22:37;;;;;;;;;;;;;;;17.13;74.71;101460.97;5035731;28;20404;-68
2021/08/18 02:25:05;;;;;;;9.60;3.20;;;;;;;17.12;75.14;101464.94;5035019;28;20289;-69
2021/08/18 02:27:33;;;;;;;10.15;3.15;;;;;;;17.14;75.12;101451.50;5034914;28;20049;-62
2021/08/18 02:30:00;;;;;;;7.65;3.10;;;;;;;16.99;75.44;101455.69;5034928;28;20056;-62
2021/08/18 02:32:27;;;;;;;7.88;3.08;;;;;;;17.03;75.75;101456.66;5033288;28;20054;-62
2021/08/18 02:34:55;;;;;;;10.13;3.50;;;;;;;17.29;74.98;101451.69;5034721;28;20053;-69
2021/08/18 02:37:22;;;;;;;7.38;3.35;;;;;;;17.02;75.49;101441.06;5034580;28;20041;-62
2021/08/18 02:39:50;;;;;;;9.80;3.47;;;;;;;17.34;74.81;101450.66;5035570;28;20084;-69
2021/08/18 02:42:17;;;;;;;8.45;3.40;;;;;;;17.28;74.32;101454.78;5033155;28;20053;-70
2021/08/18 02:44:46;;;;;;;11.35;3.60;;;;;;;17.46;73.73;101448.78;5036197;28;20045;-69
2021/08/18 02:47:14;;;;;;;12.07;3.08;;;;;;;17.41;73.68;101448.13;5019085;28;20053;-69
2021/08/18 02:49:42;;;;;;;13.93;4.18;;;;;;;17.43;73.60;101452.22;5035607;28;20049;-69
2021/08/18 02:52:09;;;;;;;9.63;3.30;;;;;;;17.31;73.73;101446.56;5036318;28;20060;-62
2021/08/18 02:54:36;;;;;;;9.90;3.33;;;;;;;17.34;74.16;101445.09;5032601;28;20057;-62
2021/08/18 02:57:04;;;;;;;11.10;3.90;;;;;;;17.49;73.67;101450.03;5033583;28;20073;-62
2021/08/18 02:59:31;;;;;;;9.75;3.28;;;;;;;17.55;73.19;101438.38;5035133;28;20675;-69
2021/08/18 03:01:59;;;;;;;9.00;3.25;;;;;;;17.38;73.86;101444.03;5035558;28;20509;-69
2021/08/18 03:04:26;;;;;;;11.77;3.10;;;;;;;17.30;74.18;101446.91;5035455;28;20064;-70
2021/08/18 03:06:54;;;;;;;8.13;3.40;;;;;;;17.25;74.26;101444.34;5034837;28;20057;-70
2021/08/18 03:09:22;;;;;;;9.70;3.72;;;;;;;17.28;74.38;101443.66;5033904;28;20048;-69
2021/08/18 03:11:50;;;;;;;9.88;3.22;;;;;;;17.26;74.28;101444.00;5016755;28;20054;-61
2021/08/18 03:14:19;;;;;;;13.80;3.10;;;;;;;17.24;74.77;101445.50;5049777;28;20496;-61
2021/08/18 03:16:47;;;;;;;10.93;3.20;;;;;;;17.08;75.06;101441.69;5053533;28;20057;-61
2021/08/18 03:19:14;;;;;;;11.23;3.33;;;;;;;17.01;75.95;101444.22;5053665;28;20049;-61
2021/08/18 03:21:42;;;;;;;9.25;3.33;;;;;;;16.96;75.91;101442.44;5053728;28;20059;-69
2021/08/18 03:24:09;;;;;;;10.77;3.30;;;;;;;16.93;76.04;101448.66;5054139;28;20045;-63
2021/08/18 03:26:36;;;;;;;7.95;2.88;;;;;;;17.11;75.83;101439.06;5052085;28;20061;-61
2021/08/18 03:29:03;;;;;;;9.60;2.92;;;;;;;17.41;74.63;101437.81;5053557;28;20052;-61
2021/08/18 03:31:31;;;;;;;11.07;3.25;;;;;;;17.53;73.57;101437.91;5053641;28;20060;-69
2021/08/18 03:33:58;;;;;;;10.45;3.20;;;;;;;17.24;74.57;101440.75;5053696;28;20057;-62
2021/08/18 03:36:26;;;;;;;12.07;3.45;;;;;;;17.10;75.23;101444.97;5053380;28;20386;-62
2021/08/18 03:38:53;;;;;;;10.38;3.20;;;;;;;17.20;75.60;101434.22;5053478;28;20385;-69
2021/08/18 03:41:21;;;;;;;12.27;3.38;;;;;;;17.36;74.79;101437.19;5052382;28;20416;-69
2021/08/18 03:43:48;;;;;;;11.20;3.47;;;;;;;17.17;74.68;101443.28;5053576;28;20440;-62
2021/08/18 03:46:15;;;;;;;12.73;3.65;;;;;;;17.06;75.90;101457.91;5053652;28;20048;-69
2021/08/18 03:48:42;;;;;;;12.07;4.45;;;;;;;16.88;76.81;101435.78;5054069;28;20492;-69
2021/08/18 03:51:10;;;;;;;14.90;3.63;;;;;;;17.09;76.22;101438.56;5052796;28;20352;-69
2021/08/18 03:53:37;;;;;;;9.48;2.97;;;;;;;17.23;75.17;101435.50;5054638;28;20052;-69
2021/08/18 03:56:04;;;;;;;7.80;3.47;;;;;;;17.15;75.81;101436.41;5052542;28;20061;-69
2021/08/18 03:58:32;;;;;;;19.25;3.65;;;;;;;16.99;76.48;101438.16;5053947;28;20056;-69
2021/08/18 04:00:59;;;;;;;10.05;3.78;;;;;;;17.17;76.19;101439.66;5053770;28;20052;-62
2021/08/18 04:03:26;;;;;;;10.52;3.90;;;;;;;16.96;76.59;101436.88;5053260;28;20060;-62
2021/08/18 04:05:54;;;;;;;9.07;3.88;;;;;;;17.00;76.59;101435.03;5053173;28;20673;-61
2021/08/18 04:08:21;;;;;;;11.73;4.20;;;;;;;16.98;76.77;101440.13;5051787;28;20053;-68
2021/08/18 04:10:48;;;;;;;13.38;4.07;;;;;;;17.05;76.76;101436.81;5053465;28;20045;-61
2021/08/18 04:13:15;;;;;;;9.98;4.13;;;;;;;16.68;78.27;101439.34;5044646;28;20049;-62
2021/08/18 04:15:43;;;;;;;12.73;4.00;;;;;;;16.63;78.88;101445.09;5033443;28;20057;-62
2021/08/18 04:18:11;;;;;;;11.00;4.00;;;;;;;16.67;78.62;101440.50;5031538;28;20053;-61
2021/08/18 04:20:38;;;;;;;11.68;3.58;;;;;;;16.82;78.26;101437.13;5015278;28;20045;-62
2021/08/18 04:23:06;;;;;;;12.00;3.83;;;;;;;16.94;77.48;101432.78;5033334;28;20045;-69
2021/08/18 04:25:33;;;;;;;12.30;4.00;;;;;;;16.94;77.81;101441.16;5033496;28;20550;-69
2021/08/18 04:28:00;;;;;;;15.73;4.03;;;;;;;16.95;77.58;101434.41;5033051;28;20080;-69
2021/08/18 04:30:28;;;;;;;14.20;3.72;;;;;;;17.03;77.62;101439.94;5033306;28;20064;-69
2021/08/18 04:32:55;;;;;;;13.18;3.83;;;;;;;16.93;77.54;101440.31;5032054;28;20060;-68
2021/08/18 04:35:22;;;;;;;9.93;3.60;;;;;;;16.96;77.53;101439.66;5036230;28;20057;-69
2021/08/18 04:37:49;;;;;;;11.18;3.95;;;;;;;16.93;77.78;101443.09;5035085;28;20057;-62
2021/08/18 04:40:17;;;;;;;11.02;3.72;;;;;;;16.98;77.63;101445.69;5036965;28;20408;-62
2021/08/18 04:42:46;;;;;;;12.30;3.55;;;;;;;17.14;77.35;101443.94;5035668;28;20053;-62
2021/08/18 04:45:14;;;;;;;8.98;3.42;;;;;;;17.12;77.18;101442.66;5036827;28;20057;-62
2021/08/18 04:47:42;;;;;;;10.48;3.58;;;;;;;17.12;77.15;101449.00;5036522;28;20064;-61
2021/08/18 04:50:12;;;;;;;8.63;3.17;;;;;;;17.08;77.58;101447.25;5035377;28;20050;-61
2021/08/18 04:52:39;;;;;;;9.35;3.65;;;;;;;17.12;77.31;101440.66;5034754;28;20068;-63
2021/08/18 04:55:07;;;;;;;12.23;3.80;;;;;;;16.94;77.71;101450.31;5036646;28;20057;-61
2021/08/18 04:57:34;;;;;;;11.00;3.88;;;;;;;16.76;78.63;101451.56;5036217;28;20057;-68
2021/08/18 05:00:03;;;;;;;10.10;4.20;;;;;;;16.76;79.22;101441.28;5036548;28;20049;-69
2021/08/18 05:02:34;;;;;;;17.35;3.90;;;;;;;16.89;78.75;101442.97;5018732;28;20072;-69
2021/08/18 05:05:03;;;;;;;9.98;3.33;;;;;;;16.83;78.70;101438.78;5036430;28;20053;-69
2021/08/18 05:07:30;;;;;;;12.93;4.28;;;;;;;16.96;78.65;101436.88;5036904;28;20058;-68
2021/08/18 05:09:58;;;;;;;15.48;4.30;;;;;;;16.88;78.76;101443.31;5036686;28;20081;-62
2021/08/18 05:12:25;;;;;;;12.57;4.40;;;;;;;16.97;78.50;101438.50;5038006;28;20051;-62
2021/08/18 05:14:52;;;;;;;11.00;3.47;;;;;;;17.16;77.84;101441.63;5054652;28;20401;-70
2021/08/18 05:17:19;;;;;;;8.00;3.70;;;;;;;17.25;77.46;101438.75;5055819;28;20431;-70
2021/08/18 05:19:47;;;;;;;8.05;3.47;;;;;;;17.13;77.66;101441.50;5054622;28;20518;-70
2021/08/18 05:22:14;;;;;;;11.45;3.78;;;;;;;17.11;77.73;101436.25;5056276;28;20052;-70
2021/08/18 05:24:41;;;;;;;12.60;3.67;;;;;;;17.10;77.87;101440.22;5054734;28;20060;-69
2021/08/18 05:27:09;;;;;;;16.75;4.10;;;;;;;16.93;78.41;101445.88;5055860;28;20045;-69
2021/08/18 05:29:37;;;;;;;18.00;4.22;;;;;;;16.96;78.72;101450.81;5055524;28;20045;-69
2021/08/18 05:32:05;;;;;;;12.75;3.83;;;;;;;16.95;78.69;101448.31;5054495;28;20059;-62
2021/08/18 05:34:34;;;;;;;15.65;4.35;;;;;;;17.07;78.67;101452.00;5055881;28;20059;-63
2021/08/18 05:37:02;;;;;;;10.85;3.80;;;;;;;17.20;77.96;101444.53;5054041;28;20047;-62
2021/08/18 05:39:29;;;;;;;12.63;4.18;;;;;;;17.51;76.99;101456.09;5055794;28;20057;-63
2021/08/18 05:41:56;;;;;;;10.48;4.20;;;;;;;17.41;76.75;101460.09;5055841;28;20045;-61
2021/08/18 05:44:25;;;;;;;11.25;4.50;;;;;;;17.16;77.49;101454.72;5055525;28;20079;-70
2021/08/18 05:46:54;;;;;;;10.77;4.40;;;;;;;16.89;79.13;101453.31;5054250;28;20056;-69
2021/08/18 05:49:22;;;;;;;14.90;4.40;;;;;;;17.05;78.50;101451.53;5054220;28;20067;-70
2021/08/18 05:51:50;;;;;;;11.10;3.80;;;;;;;17.09;78.58;101460.00;5055662;28;20424;-62
2021/08/18 05:54:18;;;;;;;12.05;4.45;;;;;;;17.15;78.06;101453.94;5054222;28;20056;-69
2021/08/18 05:56:45;;;;;;;9.38;4.28;;;;;;;17.26;77.54;101454.34;5037621;28;20084;-70
2021/08/18 05:59:12;;;;;;;9.25;4.32;;;;;;;16.92;78.66;101462.94;5055321;28;20049;-62
2021/08/18 06:01:40;;;;;;;10.20;4.22;;;;;;;16.80;79.52;101455.31;5053905;28;20041;-62
2021/08/18 06:04:07;;;;;;;11.60;5.05;;;;;;;16.92;79.29;101458.19;5054056;28;20045;-61
2021/08/18 06:06:34;;;;;;;14.05;4.90;;;;;;;17.08;78.96;101452.81;5055187;28;20056;-62
2021/08/18 06:09:02;;;;;;;14.27;4.70;;;;;;;17.18;78.50;101461.59;5054963;28;20052;-62
2021/08/18 06:11:29;;;;;;;11.23;4.45;;;;;;;17.06;78.59;101464.31;5036991;28;20400;-62
2021/08/18 06:13:56;;;;;;;14.60;4.80;;;;;;;17.33;77.30;101460.97;5040963;28;20469;-68
2021/08/18 06:16:25;;;;;;;13.02;4.72;;;;;;;17.09;78.38;101463.63;5035369;28;20153;-69
2021/08/18 06:18:52;;;;;;;10.13;4.32;;;;;;;17.10;78.55;101468.06;5033605;28;20057;-69
2021/08/18 06:21:20;;;;;;;13.25;4.03;;;;;;;17.08;78.35;101472.31;5034989;28;20397;-64
2021/08/18 06:23:47;;;;;;;10.27;4.65;;;;;;;16.96;78.98;101469.47;5033825;28;20041;-69
2021/08/18 06:26:15;;;;;;;9.82;4.65;;;;;;;16.75;79.96;101469.44;5035822;28;20681;-61
2021/08/18 06:28:42;;;;;;;10.10;4.25;;;;;;;16.80;80.13;101469.22;5034851;28;20404;-70
2021/08/18 06:31:09;;;;;;;13.43;4.60;;;;;;;16.84;79.92;101467.41;5033531;28;20049;-70
2021/08/18 06:33:36;;;;;;;11.25;4.70;;;;;;;16.84;79.95;101471.00;5034929;28;20056;-62
2021/08/18 06:36:04;;;;;;;11.05;4.40;;;;;;;16.94;79.73;101474.53;5033516;28;20064;-63
2021/08/18 06:38:31;;;;;;;10.55;4.07;;;;;;;17.08;79.06;101472.31;5034506;28;20064;-63
2021/08/18 06:40:58;;;;;;;9.82;3.95;;;;;;;17.14;78.57;101482.09;5033259;28;20045;-63
2021/08/18 06:43:26;;;;;;;11.40;4.05;;;;;;;16.95;79.47;101481.72;5034635;28;20423;-62
2021/08/18 06:45:53;;;;;;;11.10;4.90;;;;;;;17.12;79.26;101489.97;5034352;28;20079;-62
2021/08/18 06:48:20;;;;;;;8.68;4.45;;;;;;;17.01;79.03;101483.16;5032743;28;20049;-69
2021/08/18 06:50:47;;;;;;;11.68;4.53;;;;;;;16.87;80.20;101480.66;5034295;28;20050;-70
2021/08/18 06:53:15;;;;;;;12.68;4.80;;;;;;;17.34;79.01;101481.28;5034252;28;20068;-69
2021/08/18 06:55:42;;;;;;;14.05;4.95;;;;;;;17.23;78.66;101482.84;5033729;28;20087;-70
2021/08/18 06:58:09;;;;;;;13.45;5.40;;;;;;;17.25;78.71;101480.53;5034267;28;20125;-63
2021/08/18 07:00:36;;;;;;;8.70;4.65;;;;;;;17.24;78.62;101474.16;5032918;28;20052;-63
2021/08/18 07:03:04;;;;;;;11.07;4.80;;;;;;;17.30;78.35;101478.38;5034084;28;20053;-63
2021/08/18 07:05:34;;;;;;;12.45;4.65;;;;;;;17.32;78.02;101484.41;5034431;28;20053;-63
2021/08/18 07:08:01;;;;;;;10.27;4.20;;;;;;;17.07;79.05;101482.63;5033974;28;20046;-63
2021/08/18 07:10:29;;;;;;;10.57;4.53;;;;;;;17.01;79.86;101474.81;5034138;28;20052;-63
2021/08/18 07:12:57;;;;;;;9.75;4.18;;;;;;;17.34;78.80;101482.09;5038326;28;20057;-62
2021/08/18 07:15:24;;;;;;;12.32;4.40;;;;;;;17.51;78.72;101476.41;5054021;28;20412;-63
2021/08/18 07:17:51;;;;;;;9.48;4.15;;;;;;;17.69;76.97;101475.09;5053461;28;20489;-63
2021/08/18 07:20:18;;;;;;;12.32;4.63;;;;;;;17.86;76.63;101474.94;5018793;28;20053;-63
2021/08/18 07:22:45;;;;;;;12.80;4.85;;;;;;;17.81;76.45;101472.34;5053760;28;20049;-62
2021/08/18 07:25:13;;;;;;;11.95;4.50;;;;;;;17.89;76.48;101465.03;5052481;28;20413;-63
2021/08/18 07:27:40;;;;;;;9.88;4.10;;;;;;;18.03;75.52;101465.53;5035843;28;20048;-63
2021/08/18 07:30:08;;;;;;;9.55;3.85;;;;;;;17.83;76.32;101470.03;5052234;28;20049;-62
2021/08/18 07:32:37;;;;;;;8.45;3.88;;;;;;;17.62;76.71;101463.69;5053530;28;20648;-62
2021/08/18 07:35:05;;;;;;;10.32;4.22;;;;;;;17.62;77.15;101468.44;5053553;28;20048;-63
2021/08/18 07:37:32;;;;;;;9.93;3.80;;;;;;;17.37;77.63;101466.66;5053400;28;20052;-63
2021/08/18 07:40:00;;;;;;;9.23;3.65;;;;;;;17.31;78.59;101468.03;5053385;28;20053;-63
2021/08/18 07:42:27;;;;;;;11.48;3.92;;;;;;;17.52;78.21;101464.09;5053435;28;20345;-62
2021/08/18 07:44:54;;;;;;;11.77;4.32;;;;;;;17.74;77.08;101463.75;5051949;28;20049;-62
2021/08/18 07:47:22;;;;;;;8.85;3.40;;;;;;;17.97;76.30;101464.94;5051724;28;20508;-62
2021/08/18 07:49:49;;;;;;;8.15;3.40;;;;;;;18.08;75.65;101465.31;5051899;28;20041;-63
2021/08/18 07:52:17;;;;;;;9.95;3.92;;;;;;;18.20;74.95;101464.53;5052172;28;20069;-63
2021/08/18 07:54:46;;;;;;;8.20;3.00;;;;;;;18.20;74.89;101454.19;5053483;28;20052;-70
2021/08/18 07:57:13;;;;;;;10.93;3.85;;;;;;;18.06;74.81;101458.47;5053209;28;20065;-70
2021/08/18 07:59:41;;;;;;;7.75;3.00;;;;;;;17.85;76.00;101461.34;5053146;28;20045;-69
2021/08/18 08:02:08;;;;;;;8.35;3.38;;;;;;;18.12;75.01;101465.44;5053006;28;20144;-62
2021/08/18 08:04:36;;;;;;;10.05;3.05;;;;;;;18.15;75.07;101459.19;5053189;28;20049;-63
2021/08/18 08:07:03;;;;;;;9.32;3.85;;;;;;;18.09;74.85;101466.97;5053319;28;20053;-63
2021/08/18 08:09:31;;;;;;;8.48;3.63;;;;;;;18.10;74.54;101468.59;5055413;28;20045;-63
2021/08/18 08:11:58;;;;;;;7.25;3.30;;;;;;;18.07;74.81;101460.91;5057391;28;20053;-63
2021/08/18 08:14:25;;;;;;;8.07;3.50;;;;;;;17.64;76.36;101461.34;5037853;28;20060;-63
2021/08/18 08:16:52;;;;;;;8.35;3.15;;;;;;;17.71;77.08;101474.75;5037079;28;20585;-70
2021/08/18 08:19:19;;;;;;;7.25;3.10;;;;;;;18.18;75.61;101470.47;5037131;28;20045;-70
2021/08/18 08:21:47;;;;;;;11.00;3.65;;;;;;;17.82;76.21;101478.72;5037220;28;20034;-69
2021/08/18 08:24:14;;;;;;;10.88;5.30;;;;;;;17.37;78.73;101475.03;5037464;28;20045;-71
2021/08/18 08:26:42;;;;;;;8.18;4.47;;;;;;;17.38;79.46;101462.75;5037200;28;20053;-70
2021/08/18 08:29:09;;;;;;;6.35;3.92;;;;;;;17.89;77.50;101471.44;5037049;28;20517;-71
2021/08/18 08:31:37;;;;;;;10.73;4.10;;;;;;;17.79;76.79;101469.09;5037158;28;20578;-70
2021/08/18 08:34:04;;;;;;;7.90;4.15;;;;;;;17.95;76.76;101467.28;5037051;28;20132;-69
2021/08/18 08:36:32;;;;;;;7.55;3.90;;;;;;;18.45;75.48;101464.25;5037013;28;20054;-69
2021/08/18 08:38:59;;;;;;;10.52;3.38;;;;;;;18.62;73.50;101468.78;5036799;28;20054;-70
2021/08/18 08:41:27;;;;;;;6.53;3.47;;;;;;;18.47;73.94;101467.50;5037026;28;20045;-69
2021/08/18 08:43:54;;;;;;;8.70;3.55;;;;;;;18.48;73.66;101474.69;5035736;28;20045;-69
2021/08/18 08:46:21;;;;;;;11.50;3.72;;;;;;;18.68;72.57;101471.00;5037510;28;20042;-69
2021/08/18 08:48:49;;;;;;;8.52;3.20;;;;;;;18.37;73.25;101469.91;5038029;28;20061;-70
2021/08/18 08:51:16;;;;;;;8.95;3.60;;;;;;;18.45;73.15;101475.41;5035914;28;20060;-69
2021/08/18 08:53:43;;;;;;;12.32;3.63;;;;;;;18.04;75.24;101478.34;5036401;28;20504;-70
2021/08/18 08:56:11;;;;;;;7.07;3.60;;;;;;;18.20;75.01;101473.69;5020273;28;20053;-70
2021/08/18 08:58:38;;;;;;;9.60;3.78;;;;;;;18.61;73.45;101473.56;5037226;28;20053;-70
2021/08/18 09:01:05;;;;;;;8.88;4.45;;;;;;;19.00;72.15;101477.59;5036247;28;20053;-69
2021/08/18 09:03:35;;;;;;;8.80;4.55;;;;;;;19.05;70.47;101477.34;5036770;28;20355;-70
2021/08/18 09:06:06;;;;;;;6.22;4.18;;;;;;;18.84;71.38;101473.88;5036759;28;20053;-70
2021/08/18 09:08:46;;;;;;;7.75;3.50;;;;;;;18.68;71.69;101472.97;5035228;28;20416;-69
2021/08/18 09:11:14;;;;;;;;;;;;;;;18.66;71.54;101470.53;5035735;28;20053;-69
2021/08/18 09:13:44;;;;;;;9.38;3.65;;;;;;;18.92;71.21;101467.34;5048590;28;19931;-69
2021/08/18 09:16:11;;;;;;;;;;;;;;;19.09;70.44;101475.47;5056591;28;20053;-69
2021/08/18 09:18:45;;;;;;;8.50;3.80;;;;;;;19.28;69.90;101474.84;5054229;28;19924;-70
2021/08/18 09:21:38;;;;;;;9.10;4.20;;;;;;;19.10;70.04;101477.09;5054545;28;20056;-69
2021/08/18 09:24:11;;;;;;;9.35;4.13;;;;;;;19.22;68.95;101470.66;5051499;28;20053;-70
2021/08/18 09:26:43;;;;;;;8.05;3.70;;;;;;;18.92;70.06;101470.13;5056127;28;20067;-69
2021/08/18 09:29:11;;;;;;;9.77;3.97;;;;;;;19.24;68.96;101469.16;5055725;28;20495;-69
2021/08/18 09:31:38;;;;;;;7.13;3.67;;;;;;;19.09;69.15;101479.06;5055897;28;20554;-70
2021/08/18 09:34:11;;;;;;;14.23;4.03;;;;;;;19.32;69.24;101471.00;5055889;28;20432;-69
2021/08/18 09:36:38;;;;;;;13.20;4.38;;;;;;;19.44;68.20;101464.59;5054672;28;20480;-69
2021/08/18 09:39:18;;;;;;;7.00;3.70;;;;;;;19.43;68.10;101465.75;5053854;28;20060;-69
2021/08/18 09:41:45;;;;;;;5.43;3.33;;;;;;;19.61;67.64;101459.50;5037385;28;20068;-70
2021/08/18 09:44:13;;;;;;;6.95;3.40;;;;;;;19.30;66.88;101451.00;5056063;28;20052;-69
2021/08/18 09:46:40;;;;;;;9.57;3.25;;;;;;;18.97;69.29;101461.53;5055668;28;20044;-70
2021/08/18 09:49:08;;;;;;;6.57;3.55;;;;;;;19.19;68.85;101451.81;5037632;28;20060;-71
2021/08/18 09:51:37;;;;;;;8.48;3.45;;;;;;;19.61;67.76;101459.50;5055946;28;20060;-70
2021/08/18 09:54:12;;;;;;;7.90;2.75;;;;;;;18.73;69.78;101475.50;5055776;28;20057;-70
2021/08/18 09:56:41;;;;;;;8.75;2.45;;;;;;;18.75;70.11;101470.41;5055388;28;20056;-70
2021/08/18 09:59:09;;;;;;;9.20;2.88;;;;;;;18.47;71.15;101463.88;5055203;28;20053;-70
2021/08/18 10:01:36;;;;;;;7.85;2.22;;;;;;;18.14;72.26;101465.91;5055159;28;20045;-70
2021/08/18 10:04:04;;;;;;;5.72;2.25;;;;;;;18.24;72.36;101462.66;5037517;28;20531;-70
2021/08/18 10:06:32;;;;;;;6.38;2.15;;;;;;;18.17;72.67;101462.44;5037610;28;20059;-71
2021/08/18 10:09:01;;;;;;;4.85;2.30;;;;;;;18.08;72.86;101458.94;5053779;28;20057;-62
2021/08/18 10:11:28;;;;;;;5.97;2.70;;;;;;;18.05;73.42;101452.06;5054089;28;20049;-63
2021/08/18 10:13:56;;;;;;;6.50;2.20;;;;;;;18.45;72.49;101455.06;5039806;28;20413;-62
2021/08/18 10:16:23;;;;;;;4.47;2.13;;;;;;;18.75;71.29;101456.44;5035230;28;20401;-63
2021/08/18 10:18:55;;;;;;;7.45;3.13;;;;;;;19.08;69.78;101455.13;5035039;28;20053;-62
2021/08/18 10:21:30;;;;;;;9.13;2.97;;;;;;;19.23;69.00;101461.13;5017557;28;20410;-70
2021/08/18 10:24:05;;;;;;;10.82;2.63;;;;;;;19.49;68.47;101456.75;5035026;28;20049;-69
2021/08/18 10:26:36;;;;;;;6.25;2.38;;;;;;;19.71;67.66;101456.19;5035064;28;20052;-69
2021/08/18 10:29:19;;;;;;;6.22;2.60;;;;;;;19.85;67.28;101453.78;5034857;28;20057;-70
2021/08/18 10:31:47;;;;;;;7.90;2.38;;;;;;;19.50;68.27;101450.00;5033866;28;20601;-69
2021/08/18 10:34:21;;;;;;;5.20;2.22;;;;;;;19.63;67.78;101450.78;5034682;28;20520;-68
2021/08/18 10:36:51;;;;;;;6.88;2.40;;;;;;;19.77;67.53;101451.97;5035025;28;20049;-70
2021/08/18 10:39:18;;;;;;;5.78;2.38;;;;;;;19.79;67.15;101446.00;5034543;28;20053;-71
2021/08/18 10:42:08;;;;;;;6.38;2.20;;;;;;;19.79;67.66;101440.41;5032957;28;20072;-69
2021/08/18 10:44:49;;;;;;;5.65;3.00;;;;;;;19.86;66.34;101447.03;5034566;28;20132;-63
2021/08/18 10:47:29;;;;;;;;;;;;;;;19.66;67.54;101447.25;5033385;28;20050;-63
2021/08/18 10:50:12;;;;;;;13.05;5.30;;;;;;;19.29;67.77;101442.94;5032895;28;19920;-63
2021/08/18 10:52:41;;;;;;;7.00;3.10;;;;;;;19.05;68.51;101438.25;5032916;28;20060;-62
2021/08/18 10:55:16;;;;;;;8.18;4.13;;;;;;;19.30;69.15;101430.63;5034331;28;20053;-62
2021/08/18 10:57:53;;;;;;;5.85;3.35;;;;;;;20.31;66.23;101424.25;5034435;28;20137;-63
2021/08/18 11:00:21;;;;;;;6.47;3.13;;;;;;;20.41;64.82;101417.31;5034297;28;20056;-63
2021/08/18 11:03:00;;;;;;;6.55;3.22;;;;;;;20.26;64.55;101420.94;5032243;28;20049;-62
2021/08/18 11:05:42;;;;;;;8.43;4.30;;;;;;;20.42;64.45;101422.53;5033903;28;20049;-69
2021/08/18 11:08:21;;;;;;;;;;;;;;;19.88;66.17;101422.31;5017092;28;20056;-70
2021/08/18 11:10:50;;;;;;;9.48;4.32;;;;;;;19.70;67.61;101414.63;5034016;28;19921;-69
2021/08/18 11:13:18;;;;;;;7.72;3.78;;;;;;;20.10;65.76;101416.09;5043406;28;20041;-70
2021/08/18 11:15:45;;;;;;;8.45;4.40;;;;;;;19.93;65.42;101408.06;5052599;28;20056;-71
2021/08/18 11:18:16;;;;;;;12.48;5.40;;;;;;;19.87;65.18;101415.09;5054434;28;20049;-70
2021/08/18 11:20:47;;;;;;;8.93;5.88;;;;;;;19.94;65.99;101406.91;5053410;28;20123;-70
2021/08/18 11:23:22;;;;;;;8.45;4.82;;;;;;;20.02;65.78;101413.47;5053516;28;20049;-70
2021/08/18 11:25:50;;;;;;;7.68;5.03;;;;;;;20.20;64.68;101413.97;5054925;28;20057;-72
2021/08/18 11:28:21;;;;;;;8.13;4.88;;;;;;;20.09;65.86;101396.88;5054265;28;20568;-70